sensor_id;sensor_type;location;lat;lon;timestamp;P1;durP1;ratioP1;P2;durP2;ratioP2
17372;SDS011;8803;48.116;11.590;2024-03-29T00:01:04;1.97;;;1.30;;
17372;SDS011;8803;48.116;11.590;2024-03-29T00:03:17;1.13;;;1.00;;
17372;SDS011;8803;48.116;11.590;2024-03-29T00:05:22;1.30;;;0.90;;
17372;SDS011;8803;48.116;11.590;2024-03-29T00:07:36;1.40;;;1.00;;
17372;SDS011;8803;48.116;11.590;2024-03-29T00:11:53;2.10;;;1.10;;
17372;SDS011;8803;48.116;11.590;2024-03-29T00:13:58;1.53;;;0.83;;
17372;SDS011;8803;48.116;11.590;2024-03-29T00:16:11;1.07;;;0.83;;
17372;SDS011;8803;48.116;11.590;2024-03-29T00:20:28;2.17;;;0.90;;
17372;SDS011;8803;48.116;11.590;2024-03-29T00:22:33;0.80;;;0.80;;
17372;SDS011;8803;48.116;11.590;2024-03-29T00:24:46;1.00;;;0.83;;
17372;SDS011;8803;48.116;11.590;2024-03-29T00:26:51;1.30;;;1.03;;
17372;SDS011;8803;48.116;11.590;2024-03-29T00:29:05;1.00;;;0.77;;
17372;SDS011;8803;48.116;11.590;2024-03-29T00:31:10;1.00;;;0.70;;
17372;SDS011;8803;48.116;11.590;2024-03-29T00:33:23;1.13;;;0.77;;
17372;SDS011;8803;48.116;11.590;2024-03-29T00:35:28;0.60;;;0.60;;
17372;SDS011;8803;48.116;11.590;2024-03-29T00:37:42;1.57;;;1.23;;
17372;SDS011;8803;48.116;11.590;2024-03-29T00:39:47;1.83;;;0.90;;
17372;SDS011;8803;48.116;11.590;2024-03-29T00:42:01;0.50;;;0.50;;
17372;SDS011;8803;48.116;11.590;2024-03-29T00:46:20;0.87;;;0.60;;
17372;SDS011;8803;48.116;11.590;2024-03-29T00:48:25;1.10;;;0.70;;
17372;SDS011;8803;48.116;11.590;2024-03-29T00:50:38;0.97;;;0.70;;
17372;SDS011;8803;48.116;11.590;2024-03-29T00:52:43;0.50;;;0.50;;
17372;SDS011;8803;48.116;11.590;2024-03-29T00:54:57;0.50;;;0.50;;
17372;SDS011;8803;48.116;11.590;2024-03-29T00:57:02;0.60;;;0.53;;
17372;SDS011;8803;48.116;11.590;2024-03-29T00:59:16;0.90;;;0.80;;
17372;SDS011;8803;48.116;11.590;2024-03-29T01:03:34;0.70;;;0.70;;
17372;SDS011;8803;48.116;11.590;2024-03-29T01:05:39;1.00;;;0.73;;
17372;SDS011;8803;48.116;11.590;2024-03-29T01:07:53;0.73;;;0.67;;
17372;SDS011;8803;48.116;11.590;2024-03-29T01:09:58;1.07;;;0.60;;
17372;SDS011;8803;48.116;11.590;2024-03-29T01:12:11;0.60;;;0.50;;
17372;SDS011;8803;48.116;11.590;2024-03-29T01:16:28;0.40;;;0.40;;
17372;SDS011;8803;48.116;11.590;2024-03-29T01:18:34;0.63;;;0.63;;
17372;SDS011;8803;48.116;11.590;2024-03-29T01:20:47;1.20;;;0.50;;
17372;SDS011;8803;48.116;11.590;2024-03-29T01:22:52;0.50;;;0.50;;
17372;SDS011;8803;48.116;11.590;2024-03-29T01:24:57;0.73;;;0.57;;
17372;SDS011;8803;48.116;11.590;2024-03-29T01:27:11;0.60;;;0.50;;
17372;SDS011;8803;48.116;11.590;2024-03-29T01:29:16;0.50;;;0.50;;
17372;SDS011;8803;48.116;11.590;2024-03-29T01:31:29;0.80;;;0.50;;
17372;SDS011;8803;48.116;11.590;2024-03-29T01:33:34;0.83;;;0.60;;
17372;SDS011;8803;48.116;11.590;2024-03-29T01:35:48;0.53;;;0.50;;
17372;SDS011;8803;48.116;11.590;2024-03-29T01:37:53;0.60;;;0.53;;
17372;SDS011;8803;48.116;11.590;2024-03-29T01:40:08;0.47;;;0.47;;
17372;SDS011;8803;48.116;11.590;2024-03-29T01:44:27;3.10;;;1.10;;
17372;SDS011;8803;48.116;11.590;2024-03-29T01:46:40;0.50;;;0.50;;
17372;SDS011;8803;48.116;11.590;2024-03-29T01:48:49;1.60;;;0.60;;
17372;SDS011;8803;48.116;11.590;2024-03-29T01:51:04;0.50;;;0.50;;
17372;SDS011;8803;48.116;11.590;2024-03-29T01:53:10;0.90;;;0.40;;
17372;SDS011;8803;48.116;11.590;2024-03-29T01:55:24;1.33;;;0.60;;
17372;SDS011;8803;48.116;11.590;2024-03-29T01:59:41;1.17;;;0.60;;
17372;SDS011;8803;48.116;11.590;2024-03-29T02:01:49;1.20;;;0.63;;
17372;SDS011;8803;48.116;11.590;2024-03-29T02:04:02;0.70;;;0.60;;
17372;SDS011;8803;48.116;11.590;2024-03-29T02:08:20;1.03;;;0.60;;
17372;SDS011;8803;48.116;11.590;2024-03-29T02:12:37;1.23;;;0.60;;
17372;SDS011;8803;48.116;11.590;2024-03-29T02:14:43;0.50;;;0.50;;
17372;SDS011;8803;48.116;11.590;2024-03-29T02:16:56;1.50;;;0.70;;
17372;SDS011;8803;48.116;11.590;2024-03-29T02:19:01;0.70;;;0.70;;
17372;SDS011;8803;48.116;11.590;2024-03-29T02:23:19;0.50;;;0.50;;
17372;SDS011;8803;48.116;11.590;2024-03-29T02:25:26;0.50;;;0.50;;
17372;SDS011;8803;48.116;11.590;2024-03-29T02:27:40;0.50;;;0.50;;
17372;SDS011;8803;48.116;11.590;2024-03-29T02:29:46;0.70;;;0.50;;
17372;SDS011;8803;48.116;11.590;2024-03-29T02:31:59;0.80;;;0.60;;
17372;SDS011;8803;48.116;11.590;2024-03-29T02:34:05;0.93;;;0.50;;
17372;SDS011;8803;48.116;11.590;2024-03-29T02:36:19;0.73;;;0.60;;
17372;SDS011;8803;48.116;11.590;2024-03-29T02:38:24;0.60;;;0.60;;
17372;SDS011;8803;48.116;11.590;2024-03-29T02:40:38;0.90;;;0.80;;
17372;SDS011;8803;48.116;11.590;2024-03-29T02:42:43;0.93;;;0.83;;
17372;SDS011;8803;48.116;11.590;2024-03-29T02:44:57;0.83;;;0.80;;
17372;SDS011;8803;48.116;11.590;2024-03-29T02:47:02;1.00;;;0.70;;
17372;SDS011;8803;48.116;11.590;2024-03-29T02:49:16;1.33;;;0.70;;
17372;SDS011;8803;48.116;11.590;2024-03-29T02:51:21;0.70;;;0.60;;
17372;SDS011;8803;48.116;11.590;2024-03-29T02:53:35;1.60;;;0.90;;
17372;SDS011;8803;48.116;11.590;2024-03-29T02:55:41;1.03;;;0.70;;
17372;SDS011;8803;48.116;11.590;2024-03-29T02:57:55;0.57;;;0.50;;
17372;SDS011;8803;48.116;11.590;2024-03-29T03:00:10;1.80;;;0.67;;
17372;SDS011;8803;48.116;11.590;2024-03-29T03:04:31;0.80;;;0.70;;
17372;SDS011;8803;48.116;11.590;2024-03-29T03:06:36;0.50;;;0.50;;
17372;SDS011;8803;48.116;11.590;2024-03-29T03:08:50;0.90;;;0.70;;
17372;SDS011;8803;48.116;11.590;2024-03-29T03:13:24;1.87;;;0.60;;
17372;SDS011;8803;48.116;11.590;2024-03-29T03:15:31;0.50;;;0.40;;
17372;SDS011;8803;48.116;11.590;2024-03-29T03:17:36;1.37;;;0.70;;
17372;SDS011;8803;48.116;11.590;2024-03-29T03:19:51;0.70;;;0.70;;
17372;SDS011;8803;48.116;11.590;2024-03-29T03:21:57;0.80;;;0.70;;
17372;SDS011;8803;48.116;11.590;2024-03-29T03:24:10;0.87;;;0.70;;
17372;SDS011;8803;48.116;11.590;2024-03-29T03:26:15;1.03;;;0.80;;
17372;SDS011;8803;48.116;11.590;2024-03-29T03:28:29;0.70;;;0.70;;
17372;SDS011;8803;48.116;11.590;2024-03-29T03:30:38;0.80;;;0.70;;
17372;SDS011;8803;48.116;11.590;2024-03-29T03:32:52;1.00;;;0.57;;
17372;SDS011;8803;48.116;11.590;2024-03-29T03:34:57;0.93;;;0.70;;
17372;SDS011;8803;48.116;11.590;2024-03-29T03:37:11;0.50;;;0.50;;
17372;SDS011;8803;48.116;11.590;2024-03-29T03:39:16;0.87;;;0.70;;
17372;SDS011;8803;48.116;11.590;2024-03-29T03:41:30;1.17;;;0.80;;
17372;SDS011;8803;48.116;11.590;2024-03-29T03:45:47;0.80;;;0.70;;
17372;SDS011;8803;48.116;11.590;2024-03-29T03:47:52;0.50;;;0.50;;
17372;SDS011;8803;48.116;11.590;2024-03-29T03:50:06;2.20;;;0.70;;
17372;SDS011;8803;48.116;11.590;2024-03-29T03:52:13;0.50;;;0.50;;
17372;SDS011;8803;48.116;11.590;2024-03-29T03:54:26;0.87;;;0.87;;
17372;SDS011;8803;48.116;11.590;2024-03-29T03:56:32;0.93;;;0.60;;
17372;SDS011;8803;48.116;11.590;2024-03-29T03:58:45;1.30;;;0.80;;
17372;SDS011;8803;48.116;11.590;2024-03-29T04:00:51;0.70;;;0.70;;
17372;SDS011;8803;48.116;11.590;2024-03-29T04:03:04;0.63;;;0.63;;
17372;SDS011;8803;48.116;11.590;2024-03-29T04:05:10;0.90;;;0.60;;
17372;SDS011;8803;48.116;11.590;2024-03-29T04:07:23;0.70;;;0.70;;
17372;SDS011;8803;48.116;11.590;2024-03-29T04:09:29;0.83;;;0.77;;
17372;SDS011;8803;48.116;11.590;2024-03-29T04:11:43;0.70;;;0.70;;
17372;SDS011;8803;48.116;11.590;2024-03-29T04:13:48;0.73;;;0.70;;
17372;SDS011;8803;48.116;11.590;2024-03-29T04:16:02;0.80;;;0.80;;
17372;SDS011;8803;48.116;11.590;2024-03-29T04:18:09;1.03;;;1.00;;
17372;SDS011;8803;48.116;11.590;2024-03-29T04:20:23;1.10;;;1.00;;
17372;SDS011;8803;48.116;11.590;2024-03-29T04:22:28;1.40;;;0.90;;
17372;SDS011;8803;48.116;11.590;2024-03-29T04:24:41;0.73;;;0.70;;
17372;SDS011;8803;48.116;11.590;2024-03-29T04:26:46;0.70;;;0.70;;
17372;SDS011;8803;48.116;11.590;2024-03-29T04:29:00;1.00;;;0.90;;
17372;SDS011;8803;48.116;11.590;2024-03-29T04:33:18;1.67;;;1.00;;
17372;SDS011;8803;48.116;11.590;2024-03-29T04:35:24;1.87;;;1.03;;
17372;SDS011;8803;48.116;11.590;2024-03-29T04:37:37;1.63;;;1.00;;
17372;SDS011;8803;48.116;11.590;2024-03-29T04:39:43;0.80;;;0.80;;
17372;SDS011;8803;48.116;11.590;2024-03-29T04:41:57;2.87;;;0.97;;
17372;SDS011;8803;48.116;11.590;2024-03-29T04:46:14;1.07;;;0.97;;
17372;SDS011;8803;48.116;11.590;2024-03-29T04:50:30;1.03;;;0.90;;
17372;SDS011;8803;48.116;11.590;2024-03-29T04:54:49;1.57;;;1.40;;
17372;SDS011;8803;48.116;11.590;2024-03-29T04:56:54;1.70;;;1.50;;
17372;SDS011;8803;48.116;11.590;2024-03-29T04:59:08;1.83;;;1.60;;
17372;SDS011;8803;48.116;11.590;2024-03-29T05:01:13;1.77;;;1.47;;
17372;SDS011;8803;48.116;11.590;2024-03-29T05:03:27;1.70;;;1.47;;
17372;SDS011;8803;48.116;11.590;2024-03-29T05:05:32;1.77;;;1.67;;
17372;SDS011;8803;48.116;11.590;2024-03-29T05:07:47;1.60;;;1.50;;
17372;SDS011;8803;48.116;11.590;2024-03-29T05:09:52;1.57;;;1.47;;
17372;SDS011;8803;48.116;11.590;2024-03-29T05:12:06;1.57;;;1.47;;
17372;SDS011;8803;48.116;11.590;2024-03-29T05:14:12;1.50;;;1.40;;
17372;SDS011;8803;48.116;11.590;2024-03-29T05:16:26;1.83;;;1.63;;
17372;SDS011;8803;48.116;11.590;2024-03-29T05:20:43;1.70;;;1.60;;
17372;SDS011;8803;48.116;11.590;2024-03-29T05:22:51;1.60;;;1.50;;
17372;SDS011;8803;48.116;11.590;2024-03-29T05:25:05;2.20;;;1.87;;
17372;SDS011;8803;48.116;11.590;2024-03-29T05:27:11;1.93;;;1.80;;
17372;SDS011;8803;48.116;11.590;2024-03-29T05:29:25;2.10;;;1.90;;
17372;SDS011;8803;48.116;11.590;2024-03-29T05:33:42;3.37;;;1.87;;
17372;SDS011;8803;48.116;11.590;2024-03-29T05:35:47;1.67;;;1.57;;
17372;SDS011;8803;48.116;11.590;2024-03-29T05:38:01;1.80;;;1.53;;
17372;SDS011;8803;48.116;11.590;2024-03-29T05:40:08;2.63;;;1.50;;
17372;SDS011;8803;48.116;11.590;2024-03-29T05:42:23;1.90;;;1.37;;
17372;SDS011;8803;48.116;11.590;2024-03-29T05:46:40;3.10;;;1.50;;
17372;SDS011;8803;48.116;11.590;2024-03-29T05:48:45;1.90;;;1.70;;
17372;SDS011;8803;48.116;11.590;2024-03-29T05:50:59;2.23;;;1.60;;
17372;SDS011;8803;48.116;11.590;2024-03-29T05:53:04;1.93;;;1.70;;
17372;SDS011;8803;48.116;11.590;2024-03-29T05:55:19;1.60;;;1.50;;
17372;SDS011;8803;48.116;11.590;2024-03-29T05:57:24;1.90;;;1.70;;
17372;SDS011;8803;48.116;11.590;2024-03-29T05:59:38;2.50;;;2.03;;
17372;SDS011;8803;48.116;11.590;2024-03-29T06:01:43;1.97;;;1.80;;
17372;SDS011;8803;48.116;11.590;2024-03-29T06:03:57;2.00;;;1.80;;
17372;SDS011;8803;48.116;11.590;2024-03-29T06:06:04;1.87;;;1.77;;
17372;SDS011;8803;48.116;11.590;2024-03-29T06:08:18;1.93;;;1.80;;
17372;SDS011;8803;48.116;11.590;2024-03-29T06:10:25;2.00;;;1.80;;
17372;SDS011;8803;48.116;11.590;2024-03-29T06:12:39;1.93;;;1.53;;
17372;SDS011;8803;48.116;11.590;2024-03-29T06:14:44;2.03;;;1.77;;
17372;SDS011;8803;48.116;11.590;2024-03-29T06:16:58;2.43;;;2.13;;
17372;SDS011;8803;48.116;11.590;2024-03-29T06:19:21;2.57;;;2.37;;
17372;SDS011;8803;48.116;11.590;2024-03-29T06:21:34;2.77;;;2.47;;
17372;SDS011;8803;48.116;11.590;2024-03-29T06:23:41;3.00;;;2.80;;
17372;SDS011;8803;48.116;11.590;2024-03-29T06:25:55;2.93;;;2.73;;
17372;SDS011;8803;48.116;11.590;2024-03-29T06:28:00;3.83;;;2.83;;
17372;SDS011;8803;48.116;11.590;2024-03-29T06:30:14;3.33;;;3.03;;
17372;SDS011;8803;48.116;11.590;2024-03-29T06:32:21;2.73;;;2.53;;
17372;SDS011;8803;48.116;11.590;2024-03-29T06:34:34;3.23;;;2.93;;
17372;SDS011;8803;48.116;11.590;2024-03-29T06:36:39;2.70;;;2.47;;
17372;SDS011;8803;48.116;11.590;2024-03-29T06:38:53;1.73;;;1.63;;
17372;SDS011;8803;48.116;11.590;2024-03-29T06:43:10;1.60;;;1.40;;
17372;SDS011;8803;48.116;11.590;2024-03-29T06:45:15;1.83;;;1.63;;
17372;SDS011;8803;48.116;11.590;2024-03-29T06:47:29;1.90;;;1.80;;
17372;SDS011;8803;48.116;11.590;2024-03-29T06:51:46;1.80;;;1.50;;
17372;SDS011;8803;48.116;11.590;2024-03-29T06:56:05;1.43;;;1.33;;
17372;SDS011;8803;48.116;11.590;2024-03-29T07:00:22;1.33;;;1.23;;
17372;SDS011;8803;48.116;11.590;2024-03-29T07:02:28;1.47;;;1.30;;
17372;SDS011;8803;48.116;11.590;2024-03-29T07:04:41;3.17;;;1.57;;
17372;SDS011;8803;48.116;11.590;2024-03-29T07:08:58;1.23;;;1.13;;
17372;SDS011;8803;48.116;11.590;2024-03-29T07:13:17;1.30;;;1.20;;
17372;SDS011;8803;48.116;11.590;2024-03-29T07:15:23;0.80;;;0.80;;
17372;SDS011;8803;48.116;11.590;2024-03-29T07:17:28;1.17;;;1.07;;
17372;SDS011;8803;48.116;11.590;2024-03-29T07:19:41;1.50;;;1.13;;
17372;SDS011;8803;48.116;11.590;2024-03-29T07:21:46;1.17;;;1.07;;
17372;SDS011;8803;48.116;11.590;2024-03-29T07:24:00;1.10;;;1.00;;
17372;SDS011;8803;48.116;11.590;2024-03-29T07:26:06;1.57;;;1.23;;
17372;SDS011;8803;48.116;11.590;2024-03-29T07:28:19;1.40;;;1.10;;
17372;SDS011;8803;48.116;11.590;2024-03-29T07:30:24;1.30;;;1.03;;
17372;SDS011;8803;48.116;11.590;2024-03-29T07:32:38;1.17;;;0.83;;
17372;SDS011;8803;48.116;11.590;2024-03-29T07:34:43;1.00;;;0.70;;
17372;SDS011;8803;48.116;11.590;2024-03-29T07:36:56;1.10;;;1.00;;
17372;SDS011;8803;48.116;11.590;2024-03-29T07:41:16;0.80;;;0.80;;
17372;SDS011;8803;48.116;11.590;2024-03-29T07:43:21;1.40;;;0.93;;
17372;SDS011;8803;48.116;11.590;2024-03-29T07:45:35;2.10;;;0.97;;
17372;SDS011;8803;48.116;11.590;2024-03-29T07:47:40;1.40;;;0.80;;
17372;SDS011;8803;48.116;11.590;2024-03-29T07:49:55;2.17;;;0.93;;
17372;SDS011;8803;48.116;11.590;2024-03-29T07:54:12;1.07;;;0.83;;
17372;SDS011;8803;48.116;11.590;2024-03-29T07:56:25;0.80;;;0.60;;
17372;SDS011;8803;48.116;11.590;2024-03-29T07:58:34;0.63;;;0.63;;
17372;SDS011;8803;48.116;11.590;2024-03-29T08:00:47;1.20;;;0.80;;
17372;SDS011;8803;48.116;11.590;2024-03-29T08:05:05;1.07;;;0.80;;
17372;SDS011;8803;48.116;11.590;2024-03-29T08:07:11;1.00;;;0.70;;
17372;SDS011;8803;48.116;11.590;2024-03-29T08:09:24;0.70;;;0.60;;
17372;SDS011;8803;48.116;11.590;2024-03-29T08:11:30;1.73;;;0.60;;
17372;SDS011;8803;48.116;11.590;2024-03-29T08:13:44;1.43;;;0.90;;
17372;SDS011;8803;48.116;11.590;2024-03-29T08:15:49;1.93;;;1.10;;
17372;SDS011;8803;48.116;11.590;2024-03-29T08:18:02;1.00;;;0.80;;
17372;SDS011;8803;48.116;11.590;2024-03-29T08:20:10;1.00;;;0.80;;
17372;SDS011;8803;48.116;11.590;2024-03-29T08:22:24;0.80;;;0.70;;
17372;SDS011;8803;48.116;11.590;2024-03-29T08:26:51;1.20;;;0.87;;
17372;SDS011;8803;48.116;11.590;2024-03-29T08:31:08;2.90;;;0.90;;
17372;SDS011;8803;48.116;11.590;2024-03-29T08:33:13;1.33;;;0.70;;
17372;SDS011;8803;48.116;11.590;2024-03-29T08:35:27;1.53;;;0.87;;
17372;SDS011;8803;48.116;11.590;2024-03-29T08:37:32;0.70;;;0.70;;
17372;SDS011;8803;48.116;11.590;2024-03-29T08:39:46;3.53;;;0.83;;
17372;SDS011;8803;48.116;11.590;2024-03-29T08:41:51;1.10;;;0.90;;
17372;SDS011;8803;48.116;11.590;2024-03-29T08:44:05;1.00;;;0.80;;
17372;SDS011;8803;48.116;11.590;2024-03-29T08:46:10;0.90;;;0.83;;
17372;SDS011;8803;48.116;11.590;2024-03-29T08:48:24;1.13;;;0.83;;
17372;SDS011;8803;48.116;11.590;2024-03-29T08:50:29;2.00;;;0.77;;
17372;SDS011;8803;48.116;11.590;2024-03-29T08:52:43;0.90;;;0.57;;
17372;SDS011;8803;48.116;11.590;2024-03-29T08:57:01;1.40;;;0.60;;
17372;SDS011;8803;48.116;11.590;2024-03-29T08:59:06;0.83;;;0.73;;
17372;SDS011;8803;48.116;11.590;2024-03-29T09:01:20;1.07;;;0.70;;
17372;SDS011;8803;48.116;11.590;2024-03-29T09:03:25;1.37;;;0.90;;
17372;SDS011;8803;48.116;11.590;2024-03-29T09:05:38;1.43;;;0.50;;
17372;SDS011;8803;48.116;11.590;2024-03-29T09:07:44;1.17;;;0.70;;
17372;SDS011;8803;48.116;11.590;2024-03-29T09:10:02;1.57;;;0.80;;
17372;SDS011;8803;48.116;11.590;2024-03-29T09:14:21;1.77;;;0.53;;
17372;SDS011;8803;48.116;11.590;2024-03-29T09:18:40;0.67;;;0.60;;
17372;SDS011;8803;48.116;11.590;2024-03-29T09:20:45;0.57;;;0.53;;
17372;SDS011;8803;48.116;11.590;2024-03-29T09:23:06;0.80;;;0.60;;
17372;SDS011;8803;48.116;11.590;2024-03-29T09:25:11;1.13;;;0.67;;
17372;SDS011;8803;48.116;11.590;2024-03-29T09:27:26;2.10;;;0.70;;
17372;SDS011;8803;48.116;11.590;2024-03-29T09:31:43;0.37;;;0.37;;
17372;SDS011;8803;48.116;11.590;2024-03-29T09:36:01;1.00;;;0.70;;
17372;SDS011;8803;48.116;11.590;2024-03-29T09:38:06;0.70;;;0.60;;
17372;SDS011;8803;48.116;11.590;2024-03-29T09:40:20;0.80;;;0.50;;
17372;SDS011;8803;48.116;11.590;2024-03-29T09:42:25;1.40;;;0.70;;
17372;SDS011;8803;48.116;11.590;2024-03-29T09:44:39;0.80;;;0.60;;
17372;SDS011;8803;48.116;11.590;2024-03-29T09:46:47;1.30;;;0.60;;
17372;SDS011;8803;48.116;11.590;2024-03-29T09:49:02;0.87;;;0.50;;
17372;SDS011;8803;48.116;11.590;2024-03-29T09:53:20;1.03;;;0.50;;
17372;SDS011;8803;48.116;11.590;2024-03-29T09:55:26;0.60;;;0.60;;
17372;SDS011;8803;48.116;11.590;2024-03-29T09:57:40;1.00;;;0.60;;
17372;SDS011;8803;48.116;11.590;2024-03-29T09:59:46;1.03;;;0.70;;
17372;SDS011;8803;48.116;11.590;2024-03-29T10:01:59;1.13;;;1.03;;
17372;SDS011;8803;48.116;11.590;2024-03-29T10:04:06;0.77;;;0.77;;
17372;SDS011;8803;48.116;11.590;2024-03-29T10:06:20;1.30;;;0.70;;
17372;SDS011;8803;48.116;11.590;2024-03-29T10:08:28;0.50;;;0.50;;
17372;SDS011;8803;48.116;11.590;2024-03-29T10:10:46;1.90;;;0.60;;
17372;SDS011;8803;48.116;11.590;2024-03-29T10:12:51;1.03;;;0.53;;
17372;SDS011;8803;48.116;11.590;2024-03-29T10:15:06;0.93;;;0.70;;
17372;SDS011;8803;48.116;11.590;2024-03-29T10:17:14;0.83;;;0.80;;
17372;SDS011;8803;48.116;11.590;2024-03-29T10:19:28;1.30;;;1.00;;
17372;SDS011;8803;48.116;11.590;2024-03-29T10:21:35;0.73;;;0.60;;
17372;SDS011;8803;48.116;11.590;2024-03-29T10:23:49;1.20;;;0.70;;
17372;SDS011;8803;48.116;11.590;2024-03-29T10:25:54;0.90;;;0.60;;
17372;SDS011;8803;48.116;11.590;2024-03-29T10:28:07;2.40;;;0.80;;
17372;SDS011;8803;48.116;11.590;2024-03-29T10:30:13;0.57;;;0.50;;
17372;SDS011;8803;48.116;11.590;2024-03-29T10:32:28;1.13;;;0.70;;
17372;SDS011;8803;48.116;11.590;2024-03-29T10:34:34;1.10;;;0.73;;
17372;SDS011;8803;48.116;11.590;2024-03-29T10:36:47;1.10;;;0.90;;
17372;SDS011;8803;48.116;11.590;2024-03-29T10:38:53;0.87;;;0.70;;
17372;SDS011;8803;48.116;11.590;2024-03-29T10:41:11;0.90;;;0.50;;
17372;SDS011;8803;48.116;11.590;2024-03-29T10:43:16;0.70;;;0.50;;
17372;SDS011;8803;48.116;11.590;2024-03-29T10:45:30;0.90;;;0.60;;
17372;SDS011;8803;48.116;11.590;2024-03-29T10:49:50;0.80;;;0.60;;
17372;SDS011;8803;48.116;11.590;2024-03-29T10:51:56;1.00;;;0.60;;
17372;SDS011;8803;48.116;11.590;2024-03-29T10:54:10;1.17;;;0.60;;
17372;SDS011;8803;48.116;11.590;2024-03-29T10:58:29;1.37;;;0.80;;
17372;SDS011;8803;48.116;11.590;2024-03-29T11:00:37;0.87;;;0.50;;
17372;SDS011;8803;48.116;11.590;2024-03-29T11:02:55;0.60;;;0.60;;
17372;SDS011;8803;48.116;11.590;2024-03-29T11:05:01;1.73;;;1.00;;
17372;SDS011;8803;48.116;11.590;2024-03-29T11:07:17;1.10;;;0.70;;
17372;SDS011;8803;48.116;11.590;2024-03-29T11:09:23;0.80;;;0.50;;
17372;SDS011;8803;48.116;11.590;2024-03-29T11:11:38;1.30;;;0.50;;
17372;SDS011;8803;48.116;11.590;2024-03-29T11:15:58;1.70;;;0.60;;
17372;SDS011;8803;48.116;11.590;2024-03-29T11:20:17;0.90;;;0.67;;
17372;SDS011;8803;48.116;11.590;2024-03-29T11:22:24;0.70;;;0.50;;
17372;SDS011;8803;48.116;11.590;2024-03-29T11:24:42;0.40;;;0.40;;
17372;SDS011;8803;48.116;11.590;2024-03-29T11:26:48;1.27;;;0.53;;
17372;SDS011;8803;48.116;11.590;2024-03-29T11:29:01;2.00;;;1.63;;
17372;SDS011;8803;48.116;11.590;2024-03-29T11:31:07;1.50;;;0.90;;
17372;SDS011;8803;48.116;11.590;2024-03-29T11:33:30;1.13;;;0.70;;
17372;SDS011;8803;48.116;11.590;2024-03-29T11:35:40;0.80;;;0.60;;
17372;SDS011;8803;48.116;11.590;2024-03-29T11:37:56;0.57;;;0.40;;
17372;SDS011;8803;48.116;11.590;2024-03-29T11:40:04;1.13;;;0.80;;
17372;SDS011;8803;48.116;11.590;2024-03-29T11:42:20;1.03;;;0.70;;
17372;SDS011;8803;48.116;11.590;2024-03-29T11:44:39;0.90;;;0.57;;
17372;SDS011;8803;48.116;11.590;2024-03-29T11:46:57;0.90;;;0.50;;
17372;SDS011;8803;48.116;11.590;2024-03-29T11:49:06;1.90;;;0.60;;
17372;SDS011;8803;48.116;11.590;2024-03-29T11:51:19;0.43;;;0.43;;
17372;SDS011;8803;48.116;11.590;2024-03-29T11:53:27;1.03;;;0.53;;
17372;SDS011;8803;48.116;11.590;2024-03-29T11:55:41;1.60;;;0.63;;
17372;SDS011;8803;48.116;11.590;2024-03-29T11:57:46;0.87;;;0.60;;
17372;SDS011;8803;48.116;11.590;2024-03-29T11:59:59;1.17;;;0.90;;
17372;SDS011;8803;48.116;11.590;2024-03-29T12:02:06;1.27;;;0.60;;
17372;SDS011;8803;48.116;11.590;2024-03-29T12:04:20;0.93;;;0.63;;
17372;SDS011;8803;48.116;11.590;2024-03-29T12:06:37;0.70;;;0.50;;
17372;SDS011;8803;48.116;11.590;2024-03-29T12:08:42;1.30;;;0.50;;
17372;SDS011;8803;48.116;11.590;2024-03-29T12:10:58;1.23;;;0.60;;
17372;SDS011;8803;48.116;11.590;2024-03-29T12:13:05;0.53;;;0.50;;
17372;SDS011;8803;48.116;11.590;2024-03-29T12:15:18;0.30;;;0.30;;
17372;SDS011;8803;48.116;11.590;2024-03-29T12:19:35;1.57;;;0.90;;
17372;SDS011;8803;48.116;11.590;2024-03-29T12:21:42;1.17;;;0.60;;
17372;SDS011;8803;48.116;11.590;2024-03-29T12:23:56;1.83;;;0.83;;
17372;SDS011;8803;48.116;11.590;2024-03-29T12:26:03;0.97;;;0.77;;
17372;SDS011;8803;48.116;11.590;2024-03-29T12:28:16;0.77;;;0.50;;
17372;SDS011;8803;48.116;11.590;2024-03-29T12:30:21;0.80;;;0.63;;
17372;SDS011;8803;48.116;11.590;2024-03-29T12:32:35;1.17;;;0.60;;
17372;SDS011;8803;48.116;11.590;2024-03-29T12:36:54;0.27;;;0.27;;
17372;SDS011;8803;48.116;11.590;2024-03-29T12:39:00;2.60;;;0.97;;
17372;SDS011;8803;48.116;11.590;2024-03-29T12:41:15;0.90;;;0.50;;
17372;SDS011;8803;48.116;11.590;2024-03-29T12:45:32;0.93;;;0.60;;
17372;SDS011;8803;48.116;11.590;2024-03-29T12:47:37;0.50;;;0.40;;
17372;SDS011;8803;48.116;11.590;2024-03-29T12:49:51;0.30;;;0.30;;
17372;SDS011;8803;48.116;11.590;2024-03-29T12:54:09;0.80;;;0.50;;
17372;SDS011;8803;48.116;11.590;2024-03-29T12:56:14;0.80;;;0.40;;
17372;SDS011;8803;48.116;11.590;2024-03-29T12:58:27;0.27;;;0.27;;
17372;SDS011;8803;48.116;11.590;2024-03-29T13:00:33;0.70;;;0.50;;
17372;SDS011;8803;48.116;11.590;2024-03-29T13:02:49;0.30;;;0.30;;
17372;SDS011;8803;48.116;11.590;2024-03-29T13:04:55;0.37;;;0.17;;
17372;SDS011;8803;48.116;11.590;2024-03-29T13:07:09;2.73;;;0.40;;
17372;SDS011;8803;48.116;11.590;2024-03-29T13:11:27;0.40;;;0.30;;
17372;SDS011;8803;48.116;11.590;2024-03-29T13:13:33;0.37;;;0.30;;
17372;SDS011;8803;48.116;11.590;2024-03-29T13:15:47;0.40;;;0.30;;
17372;SDS011;8803;48.116;11.590;2024-03-29T13:17:53;0.30;;;0.30;;
17372;SDS011;8803;48.116;11.590;2024-03-29T13:20:09;0.37;;;0.30;;
17372;SDS011;8803;48.116;11.590;2024-03-29T13:24:26;0.30;;;0.30;;
17372;SDS011;8803;48.116;11.590;2024-03-29T13:26:32;0.60;;;0.23;;
17372;SDS011;8803;48.116;11.590;2024-03-29T13:28:45;0.30;;;0.30;;
17372;SDS011;8803;48.116;11.590;2024-03-29T13:30:50;0.20;;;0.20;;
17372;SDS011;8803;48.116;11.590;2024-03-29T13:33:04;0.40;;;0.30;;
17372;SDS011;8803;48.116;11.590;2024-03-29T13:37:23;0.20;;;0.20;;
17372;SDS011;8803;48.116;11.590;2024-03-29T13:39:29;0.20;;;0.20;;
17372;SDS011;8803;48.116;11.590;2024-03-29T13:41:42;0.30;;;0.30;;
17372;SDS011;8803;48.116;11.590;2024-03-29T13:43:47;0.20;;;0.20;;
17372;SDS011;8803;48.116;11.590;2024-03-29T13:46:01;0.30;;;0.30;;
17372;SDS011;8803;48.116;11.590;2024-03-29T13:48:08;0.47;;;0.20;;
17372;SDS011;8803;48.116;11.590;2024-03-29T13:50:21;0.30;;;0.30;;
17372;SDS011;8803;48.116;11.590;2024-03-29T13:54:39;0.20;;;0.20;;
17372;SDS011;8803;48.116;11.590;2024-03-29T13:59:00;0.30;;;0.20;;
17372;SDS011;8803;48.116;11.590;2024-03-29T14:01:05;0.27;;;0.27;;
17372;SDS011;8803;48.116;11.590;2024-03-29T14:03:22;0.47;;;0.30;;
17372;SDS011;8803;48.116;11.590;2024-03-29T14:05:28;0.20;;;0.20;;
17372;SDS011;8803;48.116;11.590;2024-03-29T14:07:41;1.43;;;0.50;;
17372;SDS011;8803;48.116;11.590;2024-03-29T14:09:47;0.47;;;0.23;;
17372;SDS011;8803;48.116;11.590;2024-03-29T14:12:05;0.33;;;0.20;;
17372;SDS011;8803;48.116;11.590;2024-03-29T14:14:11;0.30;;;0.30;;
17372;SDS011;8803;48.116;11.590;2024-03-29T14:16:28;0.30;;;0.20;;
17372;SDS011;8803;48.116;11.590;2024-03-29T14:18:33;0.30;;;0.30;;
17372;SDS011;8803;48.116;11.590;2024-03-29T14:20:50;0.30;;;0.30;;
17372;SDS011;8803;48.116;11.590;2024-03-29T14:22:56;0.60;;;0.33;;
17372;SDS011;8803;48.116;11.590;2024-03-29T14:25:09;0.40;;;0.40;;
17372;SDS011;8803;48.116;11.590;2024-03-29T14:27:15;1.33;;;0.30;;
17372;SDS011;8803;48.116;11.590;2024-03-29T14:29:31;0.30;;;0.20;;
17372;SDS011;8803;48.116;11.590;2024-03-29T14:31:37;0.37;;;0.37;;
17372;SDS011;8803;48.116;11.590;2024-03-29T14:33:51;0.37;;;0.30;;
17372;SDS011;8803;48.116;11.590;2024-03-29T14:38:08;0.33;;;0.30;;
17372;SDS011;8803;48.116;11.590;2024-03-29T14:40:15;1.90;;;1.80;;
17372;SDS011;8803;48.116;11.590;2024-03-29T14:42:29;0.67;;;0.60;;
17372;SDS011;8803;48.116;11.590;2024-03-29T14:44:34;0.33;;;0.33;;
17372;SDS011;8803;48.116;11.590;2024-03-29T14:46:47;0.30;;;0.30;;
17372;SDS011;8803;48.116;11.590;2024-03-29T14:48:53;0.40;;;0.37;;
17372;SDS011;8803;48.116;11.590;2024-03-29T14:51:06;0.27;;;0.20;;
17372;SDS011;8803;48.116;11.590;2024-03-29T14:53:11;0.20;;;0.20;;